sensor_id;sensor_type;location;lat;lon;timestamp;P1;durP1;ratioP1;P2;durP2;ratioP2
14516;SDS011;7344;50.864;4.362;2022-11-20T00:00:56;49.10;;;28.20;;
14516;SDS011;7344;50.864;4.362;2022-11-20T00:03:22;46.03;;;26.77;;
14516;SDS011;7344;50.864;4.362;2022-11-20T00:05:48;51.53;;;27.70;;
14516;SDS011;7344;50.864;4.362;2022-11-20T00:08:14;49.10;;;29.07;;
14516;SDS011;7344;50.864;4.362;2022-11-20T00:10:42;51.13;;;27.67;;
14516;SDS011;7344;50.864;4.362;2022-11-20T00:13:08;54.87;;;29.90;;
14516;SDS011;7344;50.864;4.362;2022-11-20T00:15:36;48.30;;;27.80;;
14516;SDS011;7344;50.864;4.362;2022-11-20T00:18:02;43.83;;;27.23;;
14516;SDS011;7344;50.864;4.362;2022-11-20T00:20:27;48.77;;;28.03;;
14516;SDS011;7344;50.864;4.362;2022-11-20T00:22:53;47.07;;;28.27;;
14516;SDS011;7344;50.864;4.362;2022-11-20T00:25:19;46.83;;;27.27;;
14516;SDS011;7344;50.864;4.362;2022-11-20T00:27:44;56.20;;;28.27;;
14516;SDS011;7344;50.864;4.362;2022-11-20T00:30:10;47.80;;;27.40;;
14516;SDS011;7344;50.864;4.362;2022-11-20T00:32:38;52.87;;;29.00;;
14516;SDS011;7344;50.864;4.362;2022-11-20T00:35:04;46.57;;;27.50;;
14516;SDS011;7344;50.864;4.362;2022-11-20T00:37:32;51.47;;;29.13;;
14516;SDS011;7344;50.864;4.362;2022-11-20T00:39:58;53.23;;;29.33;;
14516;SDS011;7344;50.864;4.362;2022-11-20T00:42:25;54.60;;;29.97;;
14516;SDS011;7344;50.864;4.362;2022-11-20T00:44:50;52.30;;;28.60;;
14516;SDS011;7344;50.864;4.362;2022-11-20T00:47:16;55.70;;;28.83;;
14516;SDS011;7344;50.864;4.362;2022-11-20T00:49:41;51.73;;;30.53;;
14516;SDS011;7344;50.864;4.362;2022-11-20T00:52:07;49.87;;;28.60;;
14516;SDS011;7344;50.864;4.362;2022-11-20T00:54:33;54.40;;;28.97;;
14516;SDS011;7344;50.864;4.362;2022-11-20T00:56:58;52.63;;;28.73;;
14516;SDS011;7344;50.864;4.362;2022-11-20T00:59:26;54.47;;;30.77;;
14516;SDS011;7344;50.864;4.362;2022-11-20T01:01:52;56.93;;;31.30;;
14516;SDS011;7344;50.864;4.362;2022-11-20T01:04:18;51.43;;;30.27;;
14516;SDS011;7344;50.864;4.362;2022-11-20T01:06:43;56.17;;;30.67;;
14516;SDS011;7344;50.864;4.362;2022-11-20T01:09:12;52.77;;;29.73;;
14516;SDS011;7344;50.864;4.362;2022-11-20T01:11:43;57.23;;;29.63;;
14516;SDS011;7344;50.864;4.362;2022-11-20T01:14:11;60.03;;;32.47;;
14516;SDS011;7344;50.864;4.362;2022-11-20T01:16:49;56.17;;;32.63;;
14516;SDS011;7344;50.864;4.362;2022-11-20T01:19:17;56.93;;;31.03;;
14516;SDS011;7344;50.864;4.362;2022-11-20T01:21:45;58.30;;;33.03;;
14516;SDS011;7344;50.864;4.362;2022-11-20T01:24:13;61.87;;;32.60;;
14516;SDS011;7344;50.864;4.362;2022-11-20T01:26:41;59.30;;;31.13;;
14516;SDS011;7344;50.864;4.362;2022-11-20T01:29:10;54.27;;;31.40;;
14516;SDS011;7344;50.864;4.362;2022-11-20T01:31:39;63.20;;;32.67;;
14516;SDS011;7344;50.864;4.362;2022-11-20T01:34:05;64.73;;;33.63;;
14516;SDS011;7344;50.864;4.362;2022-11-20T01:36:33;67.17;;;34.23;;
14516;SDS011;7344;50.864;4.362;2022-11-20T01:39:01;60.20;;;33.43;;
14516;SDS011;7344;50.864;4.362;2022-11-20T01:41:38;60.80;;;34.53;;
14516;SDS011;7344;50.864;4.362;2022-11-20T01:44:48;57.93;;;34.27;;
14516;SDS011;7344;50.864;4.362;2022-11-20T01:47:16;65.80;;;34.80;;
14516;SDS011;7344;50.864;4.362;2022-11-20T01:49:53;59.47;;;34.53;;
14516;SDS011;7344;50.864;4.362;2022-11-20T01:55:19;63.00;;;34.20;;
14516;SDS011;7344;50.864;4.362;2022-11-20T01:57:55;58.23;;;34.20;;
14516;SDS011;7344;50.864;4.362;2022-11-20T02:00:22;56.97;;;33.73;;
14516;SDS011;7344;50.864;4.362;2022-11-20T02:02:57;68.63;;;35.47;;
14516;SDS011;7344;50.864;4.362;2022-11-20T02:05:28;54.90;;;33.13;;
14516;SDS011;7344;50.864;4.362;2022-11-20T02:08:00;65.60;;;35.70;;
14516;SDS011;7344;50.864;4.362;2022-11-20T02:10:33;57.07;;;33.70;;
14516;SDS011;7344;50.864;4.362;2022-11-20T02:12:59;59.67;;;34.33;;
14516;SDS011;7344;50.864;4.362;2022-11-20T02:15:43;64.47;;;35.97;;
14516;SDS011;7344;50.864;4.362;2022-11-20T02:18:13;67.47;;;34.50;;
14516;SDS011;7344;50.864;4.362;2022-11-20T02:20:44;63.63;;;35.67;;
14516;SDS011;7344;50.864;4.362;2022-11-20T02:23:12;63.90;;;35.57;;
14516;SDS011;7344;50.864;4.362;2022-11-20T02:25:53;65.37;;;37.40;;
14516;SDS011;7344;50.864;4.362;2022-11-20T02:28:20;67.77;;;36.47;;
14516;SDS011;7344;50.864;4.362;2022-11-20T02:30:46;67.67;;;37.03;;
14516;SDS011;7344;50.864;4.362;2022-11-20T02:33:12;67.87;;;36.17;;
14516;SDS011;7344;50.864;4.362;2022-11-20T02:35:42;56.60;;;32.23;;
14516;SDS011;7344;50.864;4.362;2022-11-20T02:38:12;55.30;;;29.97;;
14516;SDS011;7344;50.864;4.362;2022-11-20T02:40:39;50.90;;;28.83;;
14516;SDS011;7344;50.864;4.362;2022-11-20T02:43:08;49.37;;;27.33;;
14516;SDS011;7344;50.864;4.362;2022-11-20T02:45:37;50.13;;;28.73;;
14516;SDS011;7344;50.864;4.362;2022-11-20T02:48:03;52.60;;;30.07;;
14516;SDS011;7344;50.864;4.362;2022-11-20T02:50:30;52.13;;;28.80;;
14516;SDS011;7344;50.864;4.362;2022-11-20T02:52:56;49.47;;;28.63;;
14516;SDS011;7344;50.864;4.362;2022-11-20T02:55:21;48.03;;;28.03;;
14516;SDS011;7344;50.864;4.362;2022-11-20T02:57:47;47.83;;;27.20;;
14516;SDS011;7344;50.864;4.362;2022-11-20T03:00:13;48.20;;;27.63;;
14516;SDS011;7344;50.864;4.362;2022-11-20T03:02:39;48.20;;;27.60;;
14516;SDS011;7344;50.864;4.362;2022-11-20T03:05:04;47.97;;;27.50;;
14516;SDS011;7344;50.864;4.362;2022-11-20T03:07:30;44.50;;;24.67;;
14516;SDS011;7344;50.864;4.362;2022-11-20T03:09:56;45.53;;;26.50;;
14516;SDS011;7344;50.864;4.362;2022-11-20T03:12:27;47.00;;;26.47;;
14516;SDS011;7344;50.864;4.362;2022-11-20T03:14:52;45.60;;;25.67;;
14516;SDS011;7344;50.864;4.362;2022-11-20T03:17:18;44.57;;;25.80;;
14516;SDS011;7344;50.864;4.362;2022-11-20T03:19:44;43.03;;;24.90;;
14516;SDS011;7344;50.864;4.362;2022-11-20T03:22:09;44.10;;;24.20;;
14516;SDS011;7344;50.864;4.362;2022-11-20T03:24:35;44.03;;;24.17;;
14516;SDS011;7344;50.864;4.362;2022-11-20T03:27:00;43.47;;;23.50;;
14516;SDS011;7344;50.864;4.362;2022-11-20T03:29:26;43.77;;;23.57;;
14516;SDS011;7344;50.864;4.362;2022-11-20T03:31:52;44.17;;;23.73;;
14516;SDS011;7344;50.864;4.362;2022-11-20T03:34:17;42.63;;;24.57;;
14516;SDS011;7344;50.864;4.362;2022-11-20T03:36:43;42.17;;;23.63;;
14516;SDS011;7344;50.864;4.362;2022-11-20T03:39:09;45.10;;;24.67;;
14516;SDS011;7344;50.864;4.362;2022-11-20T03:41:36;43.63;;;24.37;;
14516;SDS011;7344;50.864;4.362;2022-11-20T03:44:05;41.80;;;23.67;;
14516;SDS011;7344;50.864;4.362;2022-11-20T03:46:31;43.33;;;25.07;;
14516;SDS011;7344;50.864;4.362;2022-11-20T03:49:00;44.37;;;24.40;;
14516;SDS011;7344;50.864;4.362;2022-11-20T03:51:32;45.20;;;25.20;;
14516;SDS011;7344;50.864;4.362;2022-11-20T03:54:00;39.87;;;23.10;;
14516;SDS011;7344;50.864;4.362;2022-11-20T03:56:28;40.60;;;23.60;;
14516;SDS011;7344;50.864;4.362;2022-11-20T03:58:55;43.07;;;23.40;;
14516;SDS011;7344;50.864;4.362;2022-11-20T04:01:23;42.23;;;24.00;;
14516;SDS011;7344;50.864;4.362;2022-11-20T04:03:54;45.27;;;24.53;;
14516;SDS011;7344;50.864;4.362;2022-11-20T04:06:24;46.97;;;25.03;;
14516;SDS011;7344;50.864;4.362;2022-11-20T04:08:55;44.97;;;24.07;;
14516;SDS011;7344;50.864;4.362;2022-11-20T04:11:23;50.00;;;25.03;;
14516;SDS011;7344;50.864;4.362;2022-11-20T04:13:54;45.70;;;25.00;;
14516;SDS011;7344;50.864;4.362;2022-11-20T04:16:21;45.90;;;25.20;;
14516;SDS011;7344;50.864;4.362;2022-11-20T04:18:51;42.97;;;24.40;;
14516;SDS011;7344;50.864;4.362;2022-11-20T04:21:20;50.50;;;26.30;;
14516;SDS011;7344;50.864;4.362;2022-11-20T04:23:46;49.90;;;24.67;;
14516;SDS011;7344;50.864;4.362;2022-11-20T04:26:12;55.60;;;27.50;;
14516;SDS011;7344;50.864;4.362;2022-11-20T04:28:38;51.57;;;27.33;;
14516;SDS011;7344;50.864;4.362;2022-11-20T04:31:14;50.73;;;26.70;;
14516;SDS011;7344;50.864;4.362;2022-11-20T04:33:44;52.63;;;27.03;;
14516;SDS011;7344;50.864;4.362;2022-11-20T04:36:11;60.00;;;27.97;;
14516;SDS011;7344;50.864;4.362;2022-11-20T04:38:44;61.07;;;28.73;;
14516;SDS011;7344;50.864;4.362;2022-11-20T04:41:16;55.73;;;27.37;;
14516;SDS011;7344;50.864;4.362;2022-11-20T04:43:50;55.37;;;27.60;;
14516;SDS011;7344;50.864;4.362;2022-11-20T04:46:24;57.60;;;27.87;;
14516;SDS011;7344;50.864;4.362;2022-11-20T04:48:50;56.10;;;28.53;;
14516;SDS011;7344;50.864;4.362;2022-11-20T04:51:16;58.47;;;28.63;;
14516;SDS011;7344;50.864;4.362;2022-11-20T04:53:42;59.70;;;28.77;;
14516;SDS011;7344;50.864;4.362;2022-11-20T04:56:08;60.93;;;29.20;;
14516;SDS011;7344;50.864;4.362;2022-11-20T04:58:36;62.60;;;30.77;;
14516;SDS011;7344;50.864;4.362;2022-11-20T05:01:03;59.43;;;28.73;;
14516;SDS011;7344;50.864;4.362;2022-11-20T05:03:39;58.40;;;27.93;;
14516;SDS011;7344;50.864;4.362;2022-11-20T05:06:06;60.90;;;29.30;;
14516;SDS011;7344;50.864;4.362;2022-11-20T05:08:35;57.13;;;29.00;;
14516;SDS011;7344;50.864;4.362;2022-11-20T05:11:01;65.77;;;30.17;;
14516;SDS011;7344;50.864;4.362;2022-11-20T05:13:35;59.97;;;30.03;;
14516;SDS011;7344;50.864;4.362;2022-11-20T05:16:05;62.23;;;30.43;;
14516;SDS011;7344;50.864;4.362;2022-11-20T05:18:35;63.23;;;30.23;;
14516;SDS011;7344;50.864;4.362;2022-11-20T05:21:01;61.90;;;29.40;;
14516;SDS011;7344;50.864;4.362;2022-11-20T05:23:27;59.00;;;28.20;;
14516;SDS011;7344;50.864;4.362;2022-11-20T05:26:00;59.63;;;29.87;;
14516;SDS011;7344;50.864;4.362;2022-11-20T05:28:27;66.50;;;30.23;;
14516;SDS011;7344;50.864;4.362;2022-11-20T05:30:54;58.43;;;28.67;;
14516;SDS011;7344;50.864;4.362;2022-11-20T05:33:20;61.93;;;29.53;;
14516;SDS011;7344;50.864;4.362;2022-11-20T05:35:48;57.50;;;29.00;;
14516;SDS011;7344;50.864;4.362;2022-11-20T05:38:14;62.43;;;29.27;;
14516;SDS011;7344;50.864;4.362;2022-11-20T05:40:40;63.97;;;31.27;;
14516;SDS011;7344;50.864;4.362;2022-11-20T05:43:09;61.83;;;31.50;;
14516;SDS011;7344;50.864;4.362;2022-11-20T05:45:34;64.40;;;30.40;;
14516;SDS011;7344;50.864;4.362;2022-11-20T05:48:00;62.40;;;30.43;;
14516;SDS011;7344;50.864;4.362;2022-11-20T05:50:29;63.63;;;30.03;;
14516;SDS011;7344;50.864;4.362;2022-11-20T05:52:55;64.87;;;30.57;;
14516;SDS011;7344;50.864;4.362;2022-11-20T05:55:24;64.47;;;29.70;;
14516;SDS011;7344;50.864;4.362;2022-11-20T05:57:50;68.67;;;31.60;;
14516;SDS011;7344;50.864;4.362;2022-11-20T06:00:18;59.90;;;29.37;;
14516;SDS011;7344;50.864;4.362;2022-11-20T06:02:44;65.33;;;30.13;;
14516;SDS011;7344;50.864;4.362;2022-11-20T06:05:09;63.30;;;30.20;;
14516;SDS011;7344;50.864;4.362;2022-11-20T06:07:35;64.03;;;30.73;;
14516;SDS011;7344;50.864;4.362;2022-11-20T06:10:01;60.97;;;27.37;;
14516;SDS011;7344;50.864;4.362;2022-11-20T06:12:27;58.77;;;28.67;;
14516;SDS011;7344;50.864;4.362;2022-11-20T06:14:53;59.60;;;28.93;;
14516;SDS011;7344;50.864;4.362;2022-11-20T06:17:18;62.40;;;29.70;;
14516;SDS011;7344;50.864;4.362;2022-11-20T06:19:44;60.23;;;28.53;;
14516;SDS011;7344;50.864;4.362;2022-11-20T06:22:10;63.17;;;29.63;;
14516;SDS011;7344;50.864;4.362;2022-11-20T06:24:36;64.07;;;29.23;;
14516;SDS011;7344;50.864;4.362;2022-11-20T06:27:01;65.43;;;29.20;;
14516;SDS011;7344;50.864;4.362;2022-11-20T06:29:27;67.70;;;28.97;;
14516;SDS011;7344;50.864;4.362;2022-11-20T06:31:53;64.90;;;30.57;;
14516;SDS011;7344;50.864;4.362;2022-11-20T06:34:19;77.47;;;32.77;;
14516;SDS011;7344;50.864;4.362;2022-11-20T06:36:45;61.07;;;29.73;;
14516;SDS011;7344;50.864;4.362;2022-11-20T06:39:10;65.07;;;29.93;;
14516;SDS011;7344;50.864;4.362;2022-11-20T06:41:36;72.73;;;31.53;;
14516;SDS011;7344;50.864;4.362;2022-11-20T06:44:03;66.03;;;30.23;;
14516;SDS011;7344;50.864;4.362;2022-11-20T06:46:30;79.47;;;36.23;;
14516;SDS011;7344;50.864;4.362;2022-11-20T06:48:56;60.57;;;29.37;;
14516;SDS011;7344;50.864;4.362;2022-11-20T06:51:25;64.67;;;28.77;;
14516;SDS011;7344;50.864;4.362;2022-11-20T06:53:51;60.73;;;28.60;;
14516;SDS011;7344;50.864;4.362;2022-11-20T06:56:17;59.33;;;28.60;;
14516;SDS011;7344;50.864;4.362;2022-11-20T06:58:43;58.87;;;27.90;;
14516;SDS011;7344;50.864;4.362;2022-11-20T07:01:09;62.50;;;27.73;;
14516;SDS011;7344;50.864;4.362;2022-11-20T07:03:37;57.27;;;26.83;;
14516;SDS011;7344;50.864;4.362;2022-11-20T07:06:06;61.37;;;27.93;;
14516;SDS011;7344;50.864;4.362;2022-11-20T07:08:32;57.50;;;27.47;;
14516;SDS011;7344;50.864;4.362;2022-11-20T07:10:59;64.73;;;29.60;;
14516;SDS011;7344;50.864;4.362;2022-11-20T07:13:30;61.63;;;28.67;;
14516;SDS011;7344;50.864;4.362;2022-11-20T07:16:00;57.07;;;29.03;;
14516;SDS011;7344;50.864;4.362;2022-11-20T07:18:30;59.07;;;29.00;;
14516;SDS011;7344;50.864;4.362;2022-11-20T07:20:56;52.70;;;26.53;;
14516;SDS011;7344;50.864;4.362;2022-11-20T07:23:24;57.40;;;27.83;;
14516;SDS011;7344;50.864;4.362;2022-11-20T07:25:50;57.73;;;27.83;;
14516;SDS011;7344;50.864;4.362;2022-11-20T07:28:16;52.83;;;27.63;;
14516;SDS011;7344;50.864;4.362;2022-11-20T07:30:41;56.40;;;27.10;;
14516;SDS011;7344;50.864;4.362;2022-11-20T07:33:10;60.77;;;29.57;;
14516;SDS011;7344;50.864;4.362;2022-11-20T07:35:35;61.17;;;28.97;;
14516;SDS011;7344;50.864;4.362;2022-11-20T07:38:01;57.73;;;27.60;;
14516;SDS011;7344;50.864;4.362;2022-11-20T07:40:26;55.73;;;27.27;;
14516;SDS011;7344;50.864;4.362;2022-11-20T07:42:53;52.60;;;25.13;;
14516;SDS011;7344;50.864;4.362;2022-11-20T07:45:20;59.20;;;26.43;;
14516;SDS011;7344;50.864;4.362;2022-11-20T07:47:48;54.83;;;26.13;;
14516;SDS011;7344;50.864;4.362;2022-11-20T07:50:14;52.30;;;24.63;;
14516;SDS011;7344;50.864;4.362;2022-11-20T07:52:43;54.03;;;24.83;;
14516;SDS011;7344;50.864;4.362;2022-11-20T07:55:09;51.20;;;24.27;;
14516;SDS011;7344;50.864;4.362;2022-11-20T07:57:35;58.13;;;25.20;;
14516;SDS011;7344;50.864;4.362;2022-11-20T08:00:04;57.57;;;23.60;;
14516;SDS011;7344;50.864;4.362;2022-11-20T08:02:32;58.87;;;24.57;;
14516;SDS011;7344;50.864;4.362;2022-11-20T08:04:57;55.77;;;24.83;;
14516;SDS011;7344;50.864;4.362;2022-11-20T08:07:23;53.27;;;24.00;;
14516;SDS011;7344;50.864;4.362;2022-11-20T08:09:48;51.67;;;24.30;;
14516;SDS011;7344;50.864;4.362;2022-11-20T08:12:23;60.53;;;25.50;;
14516;SDS011;7344;50.864;4.362;2022-11-20T08:15:07;57.37;;;25.03;;
14516;SDS011;7344;50.864;4.362;2022-11-20T08:17:33;55.80;;;25.00;;
14516;SDS011;7344;50.864;4.362;2022-11-20T08:19:59;54.47;;;25.27;;
14516;SDS011;7344;50.864;4.362;2022-11-20T08:22:28;56.93;;;25.53;;
14516;SDS011;7344;50.864;4.362;2022-11-20T08:24:54;54.50;;;25.80;;
14516;SDS011;7344;50.864;4.362;2022-11-20T08:27:19;53.93;;;25.20;;
14516;SDS011;7344;50.864;4.362;2022-11-20T08:29:45;54.93;;;25.57;;
14516;SDS011;7344;50.864;4.362;2022-11-20T08:32:10;53.33;;;26.07;;
14516;SDS011;7344;50.864;4.362;2022-11-20T08:34:36;58.40;;;26.33;;
14516;SDS011;7344;50.864;4.362;2022-11-20T08:37:02;54.10;;;24.80;;
14516;SDS011;7344;50.864;4.362;2022-11-20T08:39:27;52.13;;;24.50;;
14516;SDS011;7344;50.864;4.362;2022-11-20T08:41:56;53.27;;;25.37;;
14516;SDS011;7344;50.864;4.362;2022-11-20T08:44:21;55.53;;;25.43;;
14516;SDS011;7344;50.864;4.362;2022-11-20T08:46:47;54.80;;;26.57;;
14516;SDS011;7344;50.864;4.362;2022-11-20T08:49:16;52.37;;;25.13;;
14516;SDS011;7344;50.864;4.362;2022-11-20T08:51:42;58.20;;;25.23;;
14516;SDS011;7344;50.864;4.362;2022-11-20T08:54:08;55.83;;;25.73;;
14516;SDS011;7344;50.864;4.362;2022-11-20T08:56:37;48.53;;;23.63;;
14516;SDS011;7344;50.864;4.362;2022-11-20T08:59:02;50.67;;;25.33;;
14516;SDS011;7344;50.864;4.362;2022-11-20T09:01:28;56.97;;;24.83;;
14516;SDS011;7344;50.864;4.362;2022-11-20T09:03:57;48.73;;;23.80;;
14516;SDS011;7344;50.864;4.362;2022-11-20T09:06:24;48.50;;;24.37;;
14516;SDS011;7344;50.864;4.362;2022-11-20T09:08:53;50.87;;;24.90;;
14516;SDS011;7344;50.864;4.362;2022-11-20T09:11:19;45.43;;;22.73;;
14516;SDS011;7344;50.864;4.362;2022-11-20T09:13:47;49.17;;;23.60;;
14516;SDS011;7344;50.864;4.362;2022-11-20T09:16:13;48.70;;;22.93;;
14516;SDS011;7344;50.864;4.362;2022-11-20T09:18:38;48.53;;;22.63;;
14516;SDS011;7344;50.864;4.362;2022-11-20T09:21:09;40.20;;;22.53;;
14516;SDS011;7344;50.864;4.362;2022-11-20T09:23:36;46.63;;;22.33;;
14516;SDS011;7344;50.864;4.362;2022-11-20T09:26:21;42.00;;;22.77;;
14516;SDS011;7344;50.864;4.362;2022-11-20T09:28:46;39.10;;;21.87;;
14516;SDS011;7344;50.864;4.362;2022-11-20T09:31:17;48.00;;;23.43;;
14516;SDS011;7344;50.864;4.362;2022-11-20T09:33:47;42.90;;;21.17;;
14516;SDS011;7344;50.864;4.362;2022-11-20T09:36:13;44.20;;;21.83;;
14516;SDS011;7344;50.864;4.362;2022-11-20T09:38:39;38.07;;;21.10;;
14516;SDS011;7344;50.864;4.362;2022-11-20T09:41:05;38.27;;;19.90;;
14516;SDS011;7344;50.864;4.362;2022-11-20T09:46:08;38.13;;;21.47;;
14516;SDS011;7344;50.864;4.362;2022-11-20T09:51:30;38.50;;;20.40;;
14516;SDS011;7344;50.864;4.362;2022-11-20T09:54:06;32.40;;;18.07;;
14516;SDS011;7344;50.864;4.362;2022-11-20T09:56:47;34.23;;;19.30;;
14516;SDS011;7344;50.864;4.362;2022-11-20T09:59:45;28.83;;;16.90;;
14516;SDS011;7344;50.864;4.362;2022-11-20T10:04:48;29.27;;;16.87;;
14516;SDS011;7344;50.864;4.362;2022-11-20T10:07:25;29.97;;;17.10;;
14516;SDS011;7344;50.864;4.362;2022-11-20T10:09:56;26.57;;;15.80;;
14516;SDS011;7344;50.864;4.362;2022-11-20T10:15:12;26.63;;;15.90;;
14516;SDS011;7344;50.864;4.362;2022-11-20T10:17:54;26.10;;;15.43;;
14516;SDS011;7344;50.864;4.362;2022-11-20T10:23:56;23.43;;;13.63;;
14516;SDS011;7344;50.864;4.362;2022-11-20T10:29:36;40.33;;;31.43;;
14516;SDS011;7344;50.864;4.362;2022-11-20T10:32:09;18.00;;;11.33;;
14516;SDS011;7344;50.864;4.362;2022-11-20T10:34:57;41.90;;;36.13;;
14516;SDS011;7344;50.864;4.362;2022-11-20T10:37:29;16.03;;;10.37;;
14516;SDS011;7344;50.864;4.362;2022-11-20T10:40:15;23.77;;;16.20;;
14516;SDS011;7344;50.864;4.362;2022-11-20T10:42:57;13.63;;;8.80;;
14516;SDS011;7344;50.864;4.362;2022-11-20T10:47:54;13.73;;;9.17;;
14516;SDS011;7344;50.864;4.362;2022-11-20T10:50:32;26.90;;;17.63;;
14516;SDS011;7344;50.864;4.362;2022-11-20T10:53:05;12.27;;;7.10;;
14516;SDS011;7344;50.864;4.362;2022-11-20T10:55:47;11.27;;;6.60;;
14516;SDS011;7344;50.864;4.362;2022-11-20T10:58:31;11.43;;;8.30;;
14516;SDS011;7344;50.864;4.362;2022-11-20T11:01:31;29.93;;;26.63;;
14516;SDS011;7344;50.864;4.362;2022-11-20T11:03:51;12.63;;;6.40;;
14516;SDS011;7344;50.864;4.362;2022-11-20T11:06:32;9.10;;;6.67;;
14516;SDS011;7344;50.864;4.362;2022-11-20T11:09:01;10.07;;;5.63;;
14516;SDS011;7344;50.864;4.362;2022-11-20T11:11:37;9.03;;;6.33;;
14516;SDS011;7344;50.864;4.362;2022-11-20T11:14:07;33.87;;;22.23;;
14516;SDS011;7344;50.864;4.362;2022-11-20T11:16:35;14.77;;;8.83;;
14516;SDS011;7344;50.864;4.362;2022-11-20T11:19:06;11.77;;;7.40;;
14516;SDS011;7344;50.864;4.362;2022-11-20T11:21:52;12.40;;;8.47;;
14516;SDS011;7344;50.864;4.362;2022-11-20T11:24:21;12.20;;;9.60;;
14516;SDS011;7344;50.864;4.362;2022-11-20T11:27:10;37.30;;;27.97;;
14516;SDS011;7344;50.864;4.362;2022-11-20T11:29:38;169.00;;;131.13;;
14516;SDS011;7344;50.864;4.362;2022-11-20T11:32:04;30.57;;;22.63;;
14516;SDS011;7344;50.864;4.362;2022-11-20T11:34:32;10.87;;;5.93;;
14516;SDS011;7344;50.864;4.362;2022-11-20T11:36:58;20.07;;;12.87;;
14516;SDS011;7344;50.864;4.362;2022-11-20T11:39:26;9.27;;;5.23;;
14516;SDS011;7344;50.864;4.362;2022-11-20T11:41:56;13.23;;;7.87;;
14516;SDS011;7344;50.864;4.362;2022-11-20T11:44:33;9.10;;;5.07;;
14516;SDS011;7344;50.864;4.362;2022-11-20T11:47:23;10.43;;;7.20;;
14516;SDS011;7344;50.864;4.362;2022-11-20T11:55:33;8.80;;;4.47;;
14516;SDS011;7344;50.864;4.362;2022-11-20T11:58:20;7.60;;;4.40;;
14516;SDS011;7344;50.864;4.362;2022-11-20T12:00:58;8.73;;;7.63;;
14516;SDS011;7344;50.864;4.362;2022-11-20T12:03:35;10.00;;;6.73;;
14516;SDS011;7344;50.864;4.362;2022-11-20T12:06:10;12.40;;;5.13;;
14516;SDS011;7344;50.864;4.362;2022-11-20T12:13:54;8.53;;;4.83;;
14516;SDS011;7344;50.864;4.362;2022-11-20T12:16:23;9.27;;;7.03;;
14516;SDS011;7344;50.864;4.362;2022-11-20T12:18:50;9.10;;;4.60;;
14516;SDS011;7344;50.864;4.362;2022-11-20T12:21:18;5.57;;;4.30;;
14516;SDS011;7344;50.864;4.362;2022-11-20T12:27:05;9.77;;;5.60;;
14516;SDS011;7344;50.864;4.362;2022-11-20T12:35:18;8.77;;;5.07;;
14516;SDS011;7344;50.864;4.362;2022-11-20T12:43:44;14.77;;;10.80;;
14516;SDS011;7344;50.864;4.362;2022-11-20T12:49:11;9.90;;;5.10;;
14516;SDS011;7344;50.864;4.362;2022-11-20T13:00:15;9.93;;;4.63;;
14516;SDS011;7344;50.864;4.362;2022-11-20T13:19:36;8.77;;;5.07;;
14516;SDS011;7344;50.864;4.362;2022-11-20T13:22:02;6.83;;;4.40;;
14516;SDS011;7344;50.864;4.362;2022-11-20T13:24:28;6.57;;;4.43;;
14516;SDS011;7344;50.864;4.362;2022-11-20T13:29:33;5.93;;;4.43;;
14516;SDS011;7344;50.864;4.362;2022-11-20T13:32:12;8.03;;;6.00;;
14516;SDS011;7344;50.864;4.362;2022-11-20T13:34:51;46.53;;;42.43;;
14516;SDS011;7344;50.864;4.362;2022-11-20T13:40:31;8.97;;;8.20;;
14516;SDS011;7344;50.864;4.362;2022-11-20T13:45:40;6.00;;;4.97;;
14516;SDS011;7344;50.864;4.362;2022-11-20T13:48:18;31.87;;;29.37;;
14516;SDS011;7344;50.864;4.362;2022-11-20T13:50:56;33.03;;;30.60;;
14516;SDS011;7344;50.864;4.362;2022-11-20T13:53:55;12.70;;;11.57;;
14516;SDS011;7344;50.864;4.362;2022-11-20T13:59:20;7.03;;;6.33;;
14516;SDS011;7344;50.864;4.362;2022-11-20T14:02:16;45.20;;;40.90;;
14516;SDS011;7344;50.864;4.362;2022-11-20T14:04:45;9.00;;;8.10;;
14516;SDS011;7344;50.864;4.362;2022-11-20T14:07:13;6.33;;;5.93;;
14516;SDS011;7344;50.864;4.362;2022-11-20T14:09:48;6.30;;;4.30;;
14516;SDS011;7344;50.864;4.362;2022-11-20T14:12:18;5.10;;;3.73;;
14516;SDS011;7344;50.864;4.362;2022-11-20T14:14:52;4.60;;;4.20;;
14516;SDS011;7344;50.864;4.362;2022-11-20T14:19:50;4.37;;;3.07;;
14516;SDS011;7344;50.864;4.362;2022-11-20T14:22:24;13.43;;;12.40;;
14516;SDS011;7344;50.864;4.362;2022-11-20T14:25:02;6.70;;;6.10;;
14516;SDS011;7344;50.864;4.362;2022-11-20T14:27:28;7.50;;;6.90;;
14516;SDS011;7344;50.864;4.362;2022-11-20T14:29:54;6.80;;;6.30;;
14516;SDS011;7344;50.864;4.362;2022-11-20T14:32:21;4.90;;;4.50;;
14516;SDS011;7344;50.864;4.362;2022-11-20T14:34:51;4.27;;;3.97;;
14516;SDS011;7344;50.864;4.362;2022-11-20T14:37:18;4.30;;;3.80;;
14516;SDS011;7344;50.864;4.362;2022-11-20T14:39:49;3.30;;;3.00;;
14516;SDS011;7344;50.864;4.362;2022-11-20T14:42:18;3.37;;;3.03;;
14516;SDS011;7344;50.864;4.362;2022-11-20T14:44:51;4.03;;;3.70;;
14516;SDS011;7344;50.864;4.362;2022-11-20T14:47:21;3.30;;;3.10;;
14516;SDS011;7344;50.864;4.362;2022-11-20T14:49:49;3.97;;;3.50;;
14516;SDS011;7344;50.864;4.362;2022-11-20T14:52:20;5.23;;;3.93;;
14516;SDS011;7344;50.864;4.362;2022-11-20T14:54:56;6.23;;;3.80;;
14516;SDS011;7344;50.864;4.362;2022-11-20T15:02:42;6.60;;;3.77;;
14516;SDS011;7344;50.864;4.362;2022-11-20T15:05:09;9.30;;;8.37;;
14516;SDS011;7344;50.864;4.362;2022-11-20T15:07:35;5.37;;;4.90;;
14516;SDS011;7344;50.864;4.362;2022-11-20T15:13:17;7.10;;;4.83;;
14516;SDS011;7344;50.864;4.362;2022-11-20T15:16:11;4.37;;;3.97;;
14516;SDS011;7344;50.864;4.362;2022-11-20T15:18:46;9.03;;;6.77;;
14516;SDS011;7344;50.864;4.362;2022-11-20T15:21:18;7.30;;;5.10;;
14516;SDS011;7344;50.864;4.362;2022-11-20T15:23:46;4.93;;;4.13;;
14516;SDS011;7344;50.864;4.362;2022-11-20T15:26:22;7.03;;;4.10;;
14516;SDS011;7344;50.864;4.362;2022-11-20T15:28:52;4.17;;;3.70;;
14516;SDS011;7344;50.864;4.362;2022-11-20T15:31:22;9.87;;;6.77;;
14516;SDS011;7344;50.864;4.362;2022-11-20T15:33:49;5.00;;;4.50;;
14516;SDS011;7344;50.864;4.362;2022-11-20T15:36:15;5.30;;;4.43;;
14516;SDS011;7344;50.864;4.362;2022-11-20T15:38:43;8.27;;;5.80;;
14516;SDS011;7344;50.864;4.362;2022-11-20T15:41:09;7.80;;;4.83;;
14516;SDS011;7344;50.864;4.362;2022-11-20T15:43:37;12.13;;;10.83;;
14516;SDS011;7344;50.864;4.362;2022-11-20T15:46:05;5.60;;;4.97;;
14516;SDS011;7344;50.864;4.362;2022-11-20T15:48:38;8.47;;;7.67;;
14516;SDS011;7344;50.864;4.362;2022-11-20T15:53:36;9.53;;;6.80;;
14516;SDS011;7344;50.864;4.362;2022-11-20T15:56:08;20.20;;;15.70;;
14516;SDS011;7344;50.864;4.362;2022-11-20T15:58:36;8.87;;;4.93;;
14516;SDS011;7344;50.864;4.362;2022-11-20T16:01:02;9.33;;;8.33;;
14516;SDS011;7344;50.864;4.362;2022-11-20T16:03:30;30.43;;;25.97;;
14516;SDS011;7344;50.864;4.362;2022-11-20T16:05:56;24.23;;;21.87;;
14516;SDS011;7344;50.864;4.362;2022-11-20T16:08:24;19.50;;;16.50;;
14516;SDS011;7344;50.864;4.362;2022-11-20T16:10:50;13.67;;;9.10;;
14516;SDS011;7344;50.864;4.362;2022-11-20T16:13:19;8.67;;;4.80;;
14516;SDS011;7344;50.864;4.362;2022-11-20T16:16:07;13.73;;;8.23;;
14516;SDS011;7344;50.864;4.362;2022-11-20T16:18:43;14.47;;;5.27;;
14516;SDS011;7344;50.864;4.362;2022-11-20T16:21:10;12.83;;;5.00;;
14516;SDS011;7344;50.864;4.362;2022-11-20T16:23:38;11.63;;;4.67;;
14516;SDS011;7344;50.864;4.362;2022-11-20T16:26:10;10.97;;;4.00;;
14516;SDS011;7344;50.864;4.362;2022-11-20T16:28:37;18.27;;;4.33;;
14516;SDS011;7344;50.864;4.362;2022-11-20T16:31:13;12.27;;;4.23;;
14516;SDS011;7344;50.864;4.362;2022-11-20T16:33:48;16.53;;;4.67;;
14516;SDS011;7344;50.864;4.362;2022-11-20T16:36:16;13.70;;;3.90;;